Airfield :
LOGIN :

Register | Disclaimer

   EN    FR    IT 

 










Legend :    VFR   Marginal VFR   IFR   Intensive IFR   Very Intensive IFR
Visi :
Ceiling :
>= 8 km
>= 3000ft
5 to 8 km
1000 to 3000 ft
1500m to 5 km
500 to 1000 ft
800 to 1500m
200 to 500 ft
< 800m
< 200 ft
Symbols :   Thunderstorms  Fog  Heavy snow  Heavy precipitations  Wind > 20 kt
SIGMETs :     Misc.  Thunderstorms  Icing  Turbulence  Mountain Waves  Volcanic Ashes







- Airport Elevation : 13 ft
- IATA code : OST


EBOS - Oostend bruges Int.

CURRENT METAR :
  • 231350Z 06015KT CAVOK 13/05 Q1015 NOSIG

EXPIRED METARs :
  • 231320Z 07015KT CAVOK 13/05 Q1015 NOSIG
  • 231250Z 07016KT CAVOK 12/04 Q1015 NOSIG
  • 231220Z 07015KT 9999 FEW031 12/04 Q1014 NOSIG
  • 231150Z 07016KT 9999 FEW030 11/04 Q1014 NOSIG
  • 231120Z 07015KT 040V100 9999 FEW030 11/04 Q1014 NOSIG

TAF TAF EBOS
Valid from the 23 at 12:00 until the 24 at 18:00 UTC


231100Z 2312/2418 07012KT 9999 FEW025
TEMPO 2318/2404 07015G25KT
TEMPO 2400/2409 SCT008 BKN012
No reported NOTAMs for that airfield.



MET'MAP, your aeronautical weather chart ! - Copyright ORBIFLY December 2007 - Disclaimer

ORBIFLY MET'MAP TEAM :

Programming & Development : Alexandra Zaïnal
Concept & Development : Baudouin d'Aumeries
Co-Development & Prog : Marc-Olivier Méhu
Technical & hardware support : Manuel Goepfert

Contact : metmap@orbifly.com




SOURCES & CREDITS :

   NOAA